Lake George, NY

8:02 PM EDT on August 20, 2014 (GMT -0400)
Mohawk Mountain Road, Lake George, NY | Change Station
CLOSE
Current Station
Personal Weather Station
Location: Lake George, NY
Elevation: 942 ft
Nearby Weather Stations

Elev 942 ft 43.39 °N, 73.73 °W | Updated 10 minutes ago

Scattered Clouds
Scattered Clouds
72.2 °F
Feels Like 72 °F
N
0.0
Wind Variable Wind from NNW

Today
High -- | Low -- °F
--% Chance of Precip.
Yesterday
High -- | Low -- °F
Precip. -- in
6:05 AM 7:50 PM
Waning Crescent, 18% visible
Pressure 29.96 in
Visibility 10.0 miles
Clouds Scattered Clouds 4700 ft
Heat Index 72 °F
Dew Point 67 °F
Humidity 83%
Rainfall 0.00 in
Snow Depth Not available.
UV 0 out of 12
Pollen 9.10 out of 12
Air Quality Not available.
Flu Activity Not available.
METAR KGFL 202353Z AUTO 00000KT 10SM SCT047 23/19 A2996 RMK AO2 SLP146 T02280189 10283 20222 53005

More Conditions Fewer Conditions

Pressure 29.96 in
Visibility 10.0 miles
Clouds Scattered Clouds 4700 ft
Heat Index 72 °F
Dew Point 67 °F
Humidity 83%
Rainfall 0.00 in
Snow Depth Not available.
UV 0 out of 12
Pollen 9.10 out of 12
Air Quality Not available.
Flu Activity Not available.
METAR KGFL 202353Z AUTO 00000KT 10SM SCT047 23/19 A2996 RMK AO2 SLP146 T02280189 10283 20222 53005

More Conditions Fewer Conditions

10-Day Weather Forecast

Almanac

Astronomy

Aug. 20, 2014 Rise Set
Actual Time 6:05 AM EDT 7:50 PM EDT
Civil Twilight 5:34 AM EDT 8:20 PM EDT
Nautical Twilight 4:57 AM EDT 8:57 PM EDT
Astronomical Twilight 4:17 AM EDT 9:37 PM EDT
Moon 1:39 AM EDT (8/20) 4:36 PM EDT (8/20)
Length of Visible Light 14h 45m
Length of Day
13h 44m
Tomorrow will be 2m 44s shorter.
Waning Crescent, 18% of the Moon is Illuminated
Today
Waning Crescent
Aug 25
New
Sep 2
First Quarter
Sep 8
Full
Sep 15
Last Quarter

Today's Extremes

State Highs State Lows

Community

WunderPhotos

Upload Photos

1,745,807 photos uploaded!

WunderBlogs® & News

Nearby

Air Quality

  Air Quality AQ Index Pollutant
Wednesday Good
OZONE
Wednesday Good
PM2.5
Thursday Good
PM2.5
Thursday Good
OZONE

Snow Depth

Station Depth Elevation
No new snow has been reported.

Earthquake Activity

City Distance Mag. Time & Date
No recent earthquake activity has been reported nearby.
Minimum magnitude displayed is 2.5.

Coastal Water Temperatures

Place Temperature
No Stations Reporting

Nearby Weather Stations